createdAt,value
2018-05-06T00:02:58.216Z,30.50
2018-05-06T00:06:04.511Z,30.47
2018-05-06T00:09:19.504Z,30.50
2018-05-06T00:12:26.768Z,31.70
2018-05-06T00:15:32.723Z,30.00
2018-05-06T00:18:38.822Z,29.33
2018-05-06T00:21:45.901Z,30.10
2018-05-06T00:24:52.418Z,31.77
2018-05-06T00:27:59.240Z,30.33
2018-05-06T00:31:05.302Z,31.07
2018-05-06T00:34:11.178Z,32.30
2018-05-06T00:37:17.496Z,31.37
2018-05-06T00:40:23.636Z,33.23
2018-05-06T00:43:29.770Z,32.57
2018-05-06T00:46:35.881Z,34.77
2018-05-06T00:49:42.083Z,34.47
2018-05-06T00:52:48.309Z,32.77
2018-05-06T00:55:54.239Z,36.80
2018-05-06T00:59:00.361Z,36.03
2018-05-06T01:02:06.546Z,35.70
2018-05-06T01:05:12.758Z,37.63
2018-05-06T01:08:19.117Z,36.67
2018-05-06T01:11:25.310Z,40.20
2018-05-06T01:14:31.325Z,40.07
2018-05-06T01:17:36.817Z,40.37
2018-05-06T01:20:42.772Z,40.50
2018-05-06T01:23:49.778Z,37.20
2018-05-06T01:26:55.370Z,37.93
2018-05-06T01:30:01.758Z,37.70
2018-05-06T01:33:07.102Z,37.53
2018-05-06T01:36:13.196Z,39.00
2018-05-06T01:39:19.137Z,41.60
2018-05-06T01:42:24.371Z,40.30
2018-05-06T01:45:30.413Z,45.47
2018-05-06T01:48:36.569Z,45.27
2018-05-06T01:51:42.832Z,43.03
2018-05-06T01:54:49.193Z,44.67
2018-05-06T01:57:55.467Z,43.57
2018-05-06T02:01:01.951Z,44.23
2018-05-06T02:04:08.036Z,46.90
2018-05-06T02:07:13.383Z,46.03
2018-05-06T02:10:19.550Z,45.70
2018-05-06T02:13:25.826Z,42.13
2018-05-06T02:16:31.712Z,42.13
2018-05-06T02:19:38.210Z,39.27
2018-05-06T02:22:45.073Z,39.20
2018-05-06T02:25:51.018Z,39.30
2018-05-06T02:28:56.934Z,41.73
2018-05-06T02:32:03.212Z,39.43
2018-05-06T02:35:08.634Z,39.50
2018-05-06T02:38:14.129Z,38.20
2018-05-06T02:41:20.215Z,41.47
2018-05-06T02:44:25.490Z,42.40
2018-05-06T02:47:31.639Z,45.10
2018-05-06T02:50:37.901Z,43.40
2018-05-06T02:53:43.305Z,45.27
2018-05-06T02:56:49.410Z,47.37
2018-05-06T02:59:55.444Z,48.40
2018-05-06T03:03:01.637Z,49.53
2018-05-06T03:06:07.357Z,48.83
2018-05-06T03:09:13.380Z,50.10
2018-05-06T03:12:19.656Z,47.97
2018-05-06T03:15:25.120Z,51.70
2018-05-06T03:18:31.656Z,49.13
2018-05-06T03:21:37.867Z,48.70
2018-05-06T03:24:44.079Z,48.27
2018-05-06T03:27:50.750Z,54.77
2018-05-06T03:30:57.026Z,52.13
2018-05-06T03:34:02.406Z,48.47
2018-05-06T03:37:07.460Z,47.70
2018-05-06T03:40:13.772Z,49.13
2018-05-06T03:43:19.922Z,48.60
2018-05-06T03:46:25.993Z,48.57
2018-05-06T03:49:32.300Z,54.50
2018-05-06T03:52:38.260Z,53.37
2018-05-06T03:55:44.773Z,50.40
2018-05-06T04:02:53.834Z,51.63
2018-05-06T04:05:59.906Z,49.20
2018-05-06T04:09:05.080Z,49.67
2018-05-06T04:12:11.336Z,47.77
2018-05-06T04:15:17.394Z,47.17
2018-05-06T04:18:23.469Z,43.63
2018-05-06T04:21:29.553Z,40.67
2018-05-06T04:24:34.910Z,40.90
2018-05-06T04:27:41.094Z,42.80
2018-05-06T04:30:47.218Z,39.40
2018-05-06T04:33:53.532Z,41.20
2018-05-06T04:36:58.954Z,38.80
2018-05-06T04:40:04.930Z,39.93
2018-05-06T04:43:11.171Z,36.93
2018-05-06T04:46:17.432Z,36.10
2018-05-06T04:49:23.369Z,35.60
2018-05-06T04:52:29.404Z,32.30
2018-05-06T04:55:34.876Z,30.53
2018-05-06T04:58:40.227Z,30.80
2018-05-06T05:01:46.347Z,29.70
2018-05-06T05:04:51.639Z,29.13
2018-05-06T05:07:57.793Z,29.80
2018-05-06T05:11:03.898Z,27.30
2018-05-06T05:14:09.225Z,29.50
2018-05-06T05:17:15.657Z,27.27
2018-05-06T05:20:21.995Z,27.00
2018-05-06T05:23:27.387Z,26.53
2018-05-06T05:26:33.566Z,26.17
2018-05-06T05:29:40.124Z,24.53
2018-05-06T05:32:45.964Z,24.50
2018-05-06T05:35:52.472Z,25.40
2018-05-06T05:38:58.717Z,24.17
2018-05-06T05:42:04.738Z,23.00
2018-05-06T05:45:10.980Z,25.97
2018-05-06T05:48:17.177Z,24.93
2018-05-06T05:51:24.174Z,20.97
2018-05-06T05:54:30.647Z,20.67
2018-05-06T05:57:35.789Z,23.00
2018-05-06T06:00:41.151Z,23.87
2018-05-06T06:03:47.266Z,21.07
2018-05-06T06:06:53.262Z,23.10
2018-05-06T06:09:58.563Z,21.80
2018-05-06T06:13:04.662Z,19.43
2018-05-06T06:16:10.931Z,24.27
2018-05-06T06:19:16.861Z,22.43
2018-05-06T06:22:22.189Z,20.17
2018-05-06T06:25:27.665Z,23.47
2018-05-06T06:28:33.790Z,22.67
2018-05-06T06:31:40.272Z,22.20
2018-05-06T06:34:45.400Z,23.50
2018-05-06T06:37:57.627Z,22.23
2018-05-06T06:41:03.466Z,21.30
2018-05-06T06:44:09.674Z,21.53
2018-05-06T06:47:16.147Z,20.63
2018-05-06T06:50:22.569Z,22.73
2018-05-06T06:53:28.097Z,22.80
2018-05-06T06:56:33.240Z,22.90
2018-05-06T06:59:54.523Z,23.00
2018-05-06T07:02:59.820Z,23.03
2018-05-06T07:06:04.986Z,24.70
2018-05-06T07:09:11.274Z,22.73
2018-05-06T07:12:17.468Z,22.13
2018-05-06T07:15:23.569Z,25.00
2018-05-06T07:18:28.786Z,26.30
2018-05-06T07:21:35.392Z,25.87
2018-05-06T07:24:41.524Z,24.93
2018-05-06T07:27:47.527Z,24.07
2018-05-06T07:30:52.866Z,25.53
2018-05-06T07:33:58.994Z,25.13
2018-05-06T07:37:05.036Z,24.07
2018-05-06T07:40:12.162Z,22.70
2018-05-06T07:43:18.644Z,23.20
2018-05-06T07:46:25.272Z,23.80
2018-05-06T07:49:32.090Z,24.30
2018-05-06T07:52:38.165Z,22.33
2018-05-06T07:55:44.764Z,22.40
2018-05-06T07:58:51.760Z,24.30
2018-05-06T08:01:58.628Z,24.17
2018-05-06T08:05:04.865Z,22.97
2018-05-06T08:08:12.896Z,22.73
2018-05-06T08:11:21.275Z,24.60
2018-05-06T08:14:27.240Z,23.83
2018-05-06T08:17:34.074Z,24.60
2018-05-06T08:20:39.378Z,23.70
2018-05-06T08:23:45.729Z,22.97
2018-05-06T08:26:52.673Z,22.03
2018-05-06T08:29:59.111Z,22.73
2018-05-06T08:33:05.319Z,22.37
2018-05-06T08:36:11.938Z,23.77
2018-05-06T08:39:17.750Z,21.93
2018-05-06T08:42:23.214Z,21.67
2018-05-06T08:45:29.352Z,20.70
2018-05-06T08:48:35.208Z,20.23
2018-05-06T08:51:40.721Z,18.87
2018-05-06T08:54:49.282Z,19.67
2018-05-06T08:57:56.274Z,19.43
2018-05-06T09:01:03.153Z,20.87
2018-05-06T09:04:09.701Z,19.83
2018-05-06T09:07:15.605Z,18.57
2018-05-06T09:10:21.987Z,18.70
2018-05-06T09:13:30.158Z,19.60
2018-05-06T09:16:35.564Z,20.50
2018-05-06T09:19:41.722Z,19.67
2018-05-06T09:22:49.474Z,19.93
2018-05-06T09:25:55.604Z,16.40
2018-05-06T09:29:02.099Z,17.30
2018-05-06T09:32:09.369Z,16.30
2018-05-06T09:35:15.388Z,17.30
2018-05-06T09:38:20.654Z,15.50
2018-05-06T09:41:27.325Z,15.40
2018-05-06T09:44:34.004Z,16.83
2018-05-06T09:47:39.491Z,15.37
2018-05-06T09:50:46.550Z,16.27
2018-05-06T09:53:53.852Z,15.57
2018-05-06T09:57:00.045Z,14.30
2018-05-06T10:00:06.068Z,14.80
2018-05-06T10:03:13.453Z,16.53
2018-05-06T10:06:19.760Z,15.97
2018-05-06T10:09:26.079Z,16.90
2018-05-06T10:12:32.427Z,18.47
2018-05-06T10:15:38.513Z,16.47
2018-05-06T10:18:44.255Z,15.97
2018-05-06T10:21:50.082Z,15.20
2018-05-06T10:24:57.557Z,16.87
2018-05-06T10:28:04.066Z,16.80
2018-05-06T10:31:10.203Z,16.10
2018-05-06T10:34:17.173Z,14.20
2018-05-06T10:37:24.297Z,16.07
2018-05-06T10:40:30.640Z,14.40
2018-05-06T10:43:37.707Z,12.43
2018-05-06T10:46:44.310Z,13.43
2018-05-06T10:49:51.206Z,11.33
2018-05-06T10:52:57.283Z,11.30
2018-05-06T10:56:05.319Z,11.70
2018-05-06T10:59:11.521Z,9.10
2018-05-06T11:02:17.435Z,10.32
2018-05-06T11:05:23.675Z,8.00
2018-05-06T11:08:33.773Z,9.53
2018-05-06T11:11:40.475Z,8.23
2018-05-06T11:14:45.705Z,8.10
2018-05-06T11:17:50.929Z,7.37
2018-05-06T11:20:57.443Z,7.13
2018-05-06T11:24:03.813Z,7.30
2018-05-06T11:27:10.631Z,7.47
2018-05-06T11:30:16.748Z,6.53
2018-05-06T11:33:23.088Z,7.13
2018-05-06T11:36:28.991Z,6.23
2018-05-06T11:39:35.011Z,7.20
2018-05-06T11:42:40.787Z,6.37
2018-05-06T11:45:46.729Z,6.93
2018-05-06T11:48:51.998Z,6.57
2018-05-06T11:51:57.998Z,6.30
2018-05-06T11:55:03.984Z,6.30
2018-05-06T11:58:10.074Z,6.17
2018-05-06T12:01:16.184Z,6.27
2018-05-06T12:04:22.749Z,7.30
2018-05-06T12:07:29.318Z,6.20
2018-05-06T12:10:35.253Z,6.00
2018-05-06T12:13:41.293Z,5.90
2018-05-06T12:16:47.398Z,6.17
2018-05-06T12:19:53.505Z,6.50
2018-05-06T12:22:58.616Z,6.20
2018-05-06T12:26:05.570Z,6.10
2018-05-06T12:29:12.815Z,5.53
2018-05-06T12:32:18.916Z,6.00
2018-05-06T12:35:25.357Z,5.10
2018-05-06T12:38:32.516Z,5.47
2018-05-06T12:41:38.559Z,5.13
2018-05-06T12:44:44.662Z,5.93
2018-05-06T12:47:50.758Z,6.83
2018-05-06T12:50:56.097Z,5.33
2018-05-06T12:54:02.264Z,5.93
2018-05-06T12:57:08.375Z,5.47
2018-05-06T13:00:14.445Z,6.17
2018-05-06T13:03:20.337Z,5.53
2018-05-06T13:06:26.348Z,5.70
2018-05-06T13:09:32.486Z,5.47
2018-05-06T13:12:38.133Z,5.40
2018-05-06T13:15:43.984Z,5.57
2018-05-06T13:18:51.808Z,5.50
2018-05-06T13:21:57.863Z,5.20
2018-05-06T13:25:04.717Z,6.03
2018-05-06T13:28:10.576Z,4.50
2018-05-06T13:31:16.822Z,4.73
2018-05-06T13:34:22.828Z,4.77
2018-05-06T13:40:59.143Z,5.13
2018-05-06T13:44:05.297Z,6.67
2018-05-06T13:47:11.119Z,5.70
2018-05-06T13:50:16.595Z,5.27
2018-05-06T13:53:22.543Z,5.50
2018-05-06T13:56:28.918Z,4.60
2018-05-06T13:59:35.572Z,4.57
2018-05-06T14:02:41.631Z,4.67
2018-05-06T14:05:47.439Z,4.80
2018-05-06T14:08:53.521Z,4.30
2018-05-06T14:11:59.542Z,5.47
2018-05-06T14:15:05.514Z,4.70
2018-05-06T14:18:10.584Z,4.50
2018-05-06T14:21:17.778Z,4.53
2018-05-06T14:24:23.625Z,4.00
2018-05-06T14:27:29.803Z,5.37
2018-05-06T14:30:36.077Z,4.00
2018-05-06T14:33:43.403Z,4.90
2018-05-06T14:36:49.968Z,4.20
2018-05-06T14:39:56.187Z,5.70
2018-05-06T14:43:02.406Z,4.50
2018-05-06T14:46:08.232Z,4.70
2018-05-06T14:49:13.865Z,4.30
2018-05-06T14:52:19.880Z,4.53
2018-05-06T14:55:25.114Z,4.40
2018-05-06T14:58:31.448Z,5.30
2018-05-06T15:01:36.747Z,4.10
2018-05-06T15:04:41.940Z,3.70
2018-05-06T15:07:47.946Z,4.07
2018-05-06T15:10:54.463Z,3.70
2018-05-06T15:14:02.040Z,3.87
2018-05-06T15:17:07.141Z,4.17
2018-05-06T15:20:12.298Z,4.30
2018-05-06T15:23:18.126Z,4.47
2018-05-06T15:26:24.353Z,4.27
2018-05-06T15:29:30.472Z,3.70
2018-05-06T15:32:36.772Z,3.90
2018-05-06T15:35:42.951Z,3.60
2018-05-06T15:38:49.007Z,3.77
2018-05-06T15:41:55.583Z,4.17
2018-05-06T15:45:08.310Z,4.37
2018-05-06T15:48:15.131Z,4.03
2018-05-06T15:51:22.167Z,4.10
2018-05-06T15:54:28.539Z,3.33
2018-05-06T15:57:34.690Z,3.83
2018-05-06T16:00:41.186Z,3.80
2018-05-06T16:03:59.478Z,4.10
2018-05-06T16:07:05.441Z,3.70
2018-05-06T16:10:11.487Z,3.70
2018-05-06T16:13:16.620Z,3.47
2018-05-06T16:16:22.880Z,3.50
2018-05-06T16:19:28.150Z,3.57
2018-05-06T16:22:41.360Z,4.00
2018-05-06T16:25:47.260Z,3.97
2018-05-06T16:28:52.779Z,3.73
2018-05-06T16:31:59.463Z,4.00
2018-05-06T16:35:05.528Z,3.97
2018-05-06T16:38:11.767Z,3.60
2018-05-06T16:41:18.720Z,3.80
2018-05-06T16:44:24.727Z,3.13
2018-05-06T16:47:30.825Z,3.73
2018-05-06T16:50:36.035Z,3.80
2018-05-06T16:53:41.253Z,3.70
2018-05-06T16:56:47.125Z,3.70
2018-05-06T16:59:53.254Z,3.60
2018-05-06T17:02:59.394Z,4.03
2018-05-06T17:06:04.402Z,2.80
2018-05-06T17:09:10.288Z,3.63
2018-05-06T17:12:15.452Z,3.03
2018-05-06T17:15:20.623Z,3.17
2018-05-06T17:18:26.647Z,3.57
2018-05-06T17:21:32.769Z,3.00
2018-05-06T17:24:38.793Z,2.60
2018-05-06T17:27:45.667Z,3.10
2018-05-06T17:30:51.728Z,3.10
2018-05-06T17:33:57.013Z,3.23
2018-05-06T17:37:02.324Z,2.73
2018-05-06T17:40:08.195Z,2.70
2018-05-06T17:43:14.022Z,2.73
2018-05-06T17:46:21.318Z,2.70
2018-05-06T17:49:27.281Z,2.63
2018-05-06T17:52:33.537Z,2.70
2018-05-06T17:55:39.427Z,3.57
2018-05-06T17:58:45.540Z,2.43
2018-05-06T18:01:51.696Z,3.27
2018-05-06T18:04:57.781Z,2.37
2018-05-06T18:08:04.026Z,2.43
2018-05-06T18:11:10.872Z,2.77
2018-05-06T18:14:16.816Z,2.63
2018-05-06T18:17:21.970Z,2.60
2018-05-06T18:20:28.404Z,2.50
2018-05-06T18:23:34.816Z,2.43
2018-05-06T18:26:39.922Z,2.33
2018-05-06T18:29:45.379Z,2.70
2018-05-06T18:32:51.391Z,2.57
2018-05-06T18:35:56.828Z,2.43
2018-05-06T18:39:02.955Z,2.47
2018-05-06T18:42:26.849Z,2.50
2018-05-06T18:45:32.629Z,2.47
2018-05-06T18:48:38.025Z,2.30
2018-05-06T18:51:58.043Z,2.73
2018-05-06T18:55:04.222Z,2.23
2018-05-06T18:58:11.105Z,2.37
2018-05-06T19:01:30.438Z,2.30
2018-05-06T19:04:36.342Z,2.53
2018-05-06T19:07:42.307Z,2.30
2018-05-06T19:10:47.467Z,3.70
2018-05-06T19:13:53.764Z,2.63
2018-05-06T19:16:59.785Z,1.93
2018-05-06T19:20:05.740Z,2.87
2018-05-06T19:23:11.757Z,2.40
2018-05-06T19:26:17.760Z,3.50
2018-05-06T19:29:23.920Z,2.40
2018-05-06T19:32:30.838Z,2.00
2018-05-06T19:35:36.934Z,2.40
2018-05-06T19:38:43.023Z,2.57
2018-05-06T19:41:49.821Z,2.07
2018-05-06T19:44:57.969Z,2.83
2018-05-06T19:48:04.450Z,2.40
2018-05-06T19:51:11.546Z,2.37
2018-05-06T19:54:18.247Z,2.33
2018-05-06T19:57:25.116Z,2.37
2018-05-06T20:00:41.114Z,2.20
2018-05-06T20:03:48.241Z,2.50
2018-05-06T20:06:54.337Z,2.93
2018-05-06T20:10:00.638Z,2.47
2018-05-06T20:13:08.545Z,2.47
2018-05-06T20:19:28.448Z,2.30
2018-05-06T20:22:34.814Z,2.43
2018-05-06T20:25:41.048Z,2.30
2018-05-06T20:28:51.955Z,2.40
2018-05-06T20:31:58.040Z,2.30
2018-05-06T20:35:03.749Z,2.33
2018-05-06T20:38:09.536Z,2.70
2018-05-06T20:41:18.935Z,1.93
2018-05-06T20:44:25.596Z,2.13
2018-05-06T20:47:31.058Z,2.57
2018-05-06T20:50:37.184Z,2.30
2018-05-06T20:53:43.043Z,1.80
2018-05-06T20:56:49.467Z,2.97
2018-05-06T20:59:56.104Z,2.23
2018-05-06T21:03:02.410Z,1.90
2018-05-06T21:06:08.670Z,2.10
2018-05-06T21:09:15.566Z,2.60
2018-05-06T21:12:23.341Z,3.33
2018-05-06T21:15:29.429Z,2.67
2018-05-06T21:18:35.601Z,2.33
2018-05-06T21:21:40.841Z,2.20
2018-05-06T21:24:46.585Z,2.40
2018-05-06T21:27:52.862Z,2.93
2018-05-06T21:30:58.750Z,2.40
2018-05-06T21:34:04.694Z,2.40
2018-05-06T21:37:11.747Z,2.53
2018-05-06T21:40:17.901Z,2.70
2018-05-06T21:43:24.065Z,2.97
2018-05-06T21:46:29.854Z,2.07
2018-05-06T21:49:36.093Z,2.43
2018-05-06T21:52:43.359Z,2.50
2018-05-06T21:55:50.386Z,2.60
2018-05-06T21:58:57.989Z,2.70
2018-05-06T22:02:04.902Z,2.83
2018-05-06T22:05:10.255Z,2.20
2018-05-06T22:08:15.677Z,2.47
2018-05-06T22:11:21.667Z,3.27
2018-05-06T22:14:27.876Z,2.60
2018-05-06T22:17:33.504Z,2.60
2018-05-06T22:20:40.356Z,3.47
2018-05-06T22:23:46.785Z,2.93
2018-05-06T22:26:53.334Z,2.47
2018-05-06T22:30:01.121Z,2.47
2018-05-06T22:33:07.944Z,2.87
2018-05-06T22:36:14.946Z,2.90
2018-05-06T22:39:20.527Z,2.97
2018-05-06T22:42:26.711Z,3.10
2018-05-06T22:45:34.617Z,2.87
2018-05-06T22:48:40.748Z,2.77
2018-05-06T22:51:46.824Z,2.80
2018-05-06T22:54:51.788Z,3.07
2018-05-06T22:57:57.590Z,2.57
2018-05-06T23:01:03.805Z,3.07
2018-05-06T23:04:09.050Z,2.70
2018-05-06T23:07:15.203Z,2.40
2018-05-06T23:10:21.313Z,3.00
2018-05-06T23:13:27.670Z,2.83
2018-05-06T23:16:33.995Z,3.10
2018-05-06T23:19:40.156Z,3.20
2018-05-06T23:22:46.108Z,2.90
2018-05-06T23:25:52.237Z,3.40
2018-05-06T23:28:58.195Z,2.93
2018-05-06T23:32:04.291Z,2.80
2018-05-06T23:35:10.585Z,3.00
2018-05-06T23:38:16.525Z,3.00
2018-05-06T23:41:22.498Z,2.90
2018-05-06T23:44:28.689Z,3.40
2018-05-06T23:47:33.934Z,3.33
2018-05-06T23:50:40.195Z,3.07
2018-05-06T23:53:46.304Z,3.13
2018-05-06T23:56:52.557Z,2.70
2018-05-06T23:59:58.681Z,3.27
